sensor_id;sensor_type;location;lat;lon;timestamp;pressure;altitude;pressure_sealevel;temperature;humidity
12536;BME280;6334;48.696;2.114;2022-07-23T00:01:42;100058.80;;;21.91;93.06
12536;BME280;6334;48.696;2.114;2022-07-23T00:04:12;100060.22;;;21.36;96.23
12536;BME280;6334;48.696;2.114;2022-07-23T00:06:43;100056.52;;;20.92;99.93
12536;BME280;6334;48.696;2.114;2022-07-23T00:09:13;100057.39;;;21.36;99.18
12536;BME280;6334;48.696;2.114;2022-07-23T00:11:44;100060.78;;;21.39;97.61
12536;BME280;6334;48.696;2.114;2022-07-23T00:14:14;100059.08;;;21.40;97.79
12536;BME280;6334;48.696;2.114;2022-07-23T00:16:45;100055.16;;;21.69;95.78
12536;BME280;6334;48.696;2.114;2022-07-23T00:19:15;100051.55;;;21.94;94.24
12536;BME280;6334;48.696;2.114;2022-07-23T00:21:45;100054.22;;;21.82;92.29
12536;BME280;6334;48.696;2.114;2022-07-23T00:24:16;100054.61;;;21.19;94.46
12536;BME280;6334;48.696;2.114;2022-07-23T00:26:46;100065.70;;;21.56;92.60
12536;BME280;6334;48.696;2.114;2022-07-23T00:29:17;100062.53;;;21.39;92.82
12536;BME280;6334;48.696;2.114;2022-07-23T00:31:47;100062.39;;;20.96;95.42
12536;BME280;6334;48.696;2.114;2022-07-23T00:34:18;100063.19;;;20.63;98.13
12536;BME280;6334;48.696;2.114;2022-07-23T00:36:48;100060.92;;;20.76;98.32
12536;BME280;6334;48.696;2.114;2022-07-23T00:39:19;100054.50;;;20.81;97.59
12536;BME280;6334;48.696;2.114;2022-07-23T00:41:49;100062.03;;;20.75;98.68
12536;BME280;6334;48.696;2.114;2022-07-23T00:44:20;100062.80;;;20.71;99.10
12536;BME280;6334;48.696;2.114;2022-07-23T00:46:51;100062.05;;;20.50;100.00
12536;BME280;6334;48.696;2.114;2022-07-23T00:49:21;100057.67;;;20.63;100.00
12536;BME280;6334;48.696;2.114;2022-07-23T00:51:51;100064.41;;;20.53;100.00
12536;BME280;6334;48.696;2.114;2022-07-23T00:54:22;100060.45;;;20.46;100.00
12536;BME280;6334;48.696;2.114;2022-07-23T00:56:52;100061.49;;;20.30;100.00
12536;BME280;6334;48.696;2.114;2022-07-23T00:59:22;100055.98;;;20.34;100.00
12536;BME280;6334;48.696;2.114;2022-07-23T01:01:53;100058.77;;;20.39;100.00
12536;BME280;6334;48.696;2.114;2022-07-23T01:04:23;100061.56;;;20.77;100.00
12536;BME280;6334;48.696;2.114;2022-07-23T01:06:54;100059.48;;;20.66;100.00
12536;BME280;6334;48.696;2.114;2022-07-23T01:09:24;100059.70;;;20.36;100.00
12536;BME280;6334;48.696;2.114;2022-07-23T01:11:55;100060.34;;;20.31;100.00
12536;BME280;6334;48.696;2.114;2022-07-23T01:14:25;100058.50;;;20.43;100.00
12536;BME280;6334;48.696;2.114;2022-07-23T01:16:56;100050.05;;;20.87;100.00
12536;BME280;6334;48.696;2.114;2022-07-23T01:19:26;100046.89;;;20.76;100.00
12536;BME280;6334;48.696;2.114;2022-07-23T01:21:57;100045.13;;;20.92;99.18
12536;BME280;6334;48.696;2.114;2022-07-23T01:24:27;100048.62;;;20.54;100.00
12536;BME280;6334;48.696;2.114;2022-07-23T01:26:58;100043.05;;;20.27;100.00
12536;BME280;6334;48.696;2.114;2022-07-23T01:29:28;100041.73;;;20.34;100.00
12536;BME280;6334;48.696;2.114;2022-07-23T01:31:58;100047.02;;;20.66;100.00
12536;BME280;6334;48.696;2.114;2022-07-23T01:34:29;100042.45;;;20.76;100.00
12536;BME280;6334;48.696;2.114;2022-07-23T01:36:59;100039.17;;;20.69;100.00
12536;BME280;6334;48.696;2.114;2022-07-23T01:39:31;100030.09;;;21.04;100.00
12536;BME280;6334;48.696;2.114;2022-07-23T01:42:01;100033.52;;;21.00;99.34
12536;BME280;6334;48.696;2.114;2022-07-23T01:44:32;100039.44;;;20.61;100.00
12536;BME280;6334;48.696;2.114;2022-07-23T01:47:02;100036.45;;;20.39;100.00
12536;BME280;6334;48.696;2.114;2022-07-23T01:49:33;100039.15;;;20.40;100.00
12536;BME280;6334;48.696;2.114;2022-07-23T01:52:03;100037.46;;;20.69;100.00
12536;BME280;6334;48.696;2.114;2022-07-23T01:54:34;100034.14;;;20.88;100.00
12536;BME280;6334;48.696;2.114;2022-07-23T01:57:04;100035.47;;;20.70;100.00
12536;BME280;6334;48.696;2.114;2022-07-23T01:59:35;100035.30;;;20.68;100.00
12536;BME280;6334;48.696;2.114;2022-07-23T02:02:05;100024.06;;;21.06;98.06
12536;BME280;6334;48.696;2.114;2022-07-23T02:04:36;100039.89;;;20.60;100.00
12536;BME280;6334;48.696;2.114;2022-07-23T02:07:06;100040.81;;;20.60;100.00
12536;BME280;6334;48.696;2.114;2022-07-23T02:09:36;100042.23;;;20.56;100.00
12536;BME280;6334;48.696;2.114;2022-07-23T02:12:07;100041.02;;;20.61;100.00
12536;BME280;6334;48.696;2.114;2022-07-23T02:14:37;100040.25;;;20.64;100.00
12536;BME280;6334;48.696;2.114;2022-07-23T02:17:08;100036.84;;;20.50;100.00
12536;BME280;6334;48.696;2.114;2022-07-23T02:19:38;100038.28;;;20.31;100.00
12536;BME280;6334;48.696;2.114;2022-07-23T02:22:09;100039.66;;;20.70;100.00
12536;BME280;6334;48.696;2.114;2022-07-23T02:24:39;100046.42;;;20.65;100.00
12536;BME280;6334;48.696;2.114;2022-07-23T02:27:10;100053.68;;;20.60;100.00
12536;BME280;6334;48.696;2.114;2022-07-23T02:29:40;100057.18;;;20.49;100.00
12536;BME280;6334;48.696;2.114;2022-07-23T02:32:11;100061.41;;;20.34;100.00
12536;BME280;6334;48.696;2.114;2022-07-23T02:34:41;100030.78;;;20.14;100.00
12536;BME280;6334;48.696;2.114;2022-07-23T02:37:12;100058.00;;;20.19;100.00
12536;BME280;6334;48.696;2.114;2022-07-23T02:39:42;100060.84;;;20.32;100.00
12536;BME280;6334;48.696;2.114;2022-07-23T02:42:13;100061.95;;;20.29;100.00
12536;BME280;6334;48.696;2.114;2022-07-23T02:44:43;100064.23;;;20.33;100.00
12536;BME280;6334;48.696;2.114;2022-07-23T02:47:13;100064.31;;;20.35;100.00
12536;BME280;6334;48.696;2.114;2022-07-23T02:49:44;100065.21;;;20.38;100.00
12536;BME280;6334;48.696;2.114;2022-07-23T02:52:14;100063.20;;;20.71;100.00
12536;BME280;6334;48.696;2.114;2022-07-23T02:54:45;100065.31;;;20.37;100.00
12536;BME280;6334;48.696;2.114;2022-07-23T02:57:15;100068.01;;;20.20;100.00
12536;BME280;6334;48.696;2.114;2022-07-23T02:59:46;100064.20;;;20.37;100.00
12536;BME280;6334;48.696;2.114;2022-07-23T03:02:16;100076.83;;;20.38;100.00
12536;BME280;6334;48.696;2.114;2022-07-23T03:04:47;100078.38;;;20.64;100.00
12536;BME280;6334;48.696;2.114;2022-07-23T03:07:17;100084.86;;;20.81;100.00
12536;BME280;6334;48.696;2.114;2022-07-23T03:09:48;100081.79;;;20.43;100.00
12536;BME280;6334;48.696;2.114;2022-07-23T03:12:18;100089.78;;;20.58;100.00
12536;BME280;6334;48.696;2.114;2022-07-23T03:14:49;100090.26;;;20.56;100.00
12536;BME280;6334;48.696;2.114;2022-07-23T03:17:19;100089.23;;;20.35;100.00
12536;BME280;6334;48.696;2.114;2022-07-23T03:19:50;100095.01;;;20.34;100.00
12536;BME280;6334;48.696;2.114;2022-07-23T03:22:20;100087.08;;;20.46;100.00
12536;BME280;6334;48.696;2.114;2022-07-23T03:24:50;100087.25;;;20.52;100.00
12536;BME280;6334;48.696;2.114;2022-07-23T03:27:24;100091.30;;;20.33;100.00
12536;BME280;6334;48.696;2.114;2022-07-23T03:29:55;100088.44;;;20.48;100.00
12536;BME280;6334;48.696;2.114;2022-07-23T03:32:25;100083.98;;;20.50;100.00
12536;BME280;6334;48.696;2.114;2022-07-23T03:34:55;100085.66;;;20.84;100.00
12536;BME280;6334;48.696;2.114;2022-07-23T03:37:25;100086.52;;;20.59;100.00
12536;BME280;6334;48.696;2.114;2022-07-23T03:39:56;100086.78;;;21.03;99.97
12536;BME280;6334;48.696;2.114;2022-07-23T03:42:26;100087.61;;;20.85;100.00
12536;BME280;6334;48.696;2.114;2022-07-23T03:44:57;100076.33;;;20.99;100.00
12536;BME280;6334;48.696;2.114;2022-07-23T03:47:27;100084.42;;;20.86;100.00
12536;BME280;6334;48.696;2.114;2022-07-23T03:49:58;100085.34;;;20.69;100.00
12536;BME280;6334;48.696;2.114;2022-07-23T03:52:28;100090.43;;;20.86;100.00
12536;BME280;6334;48.696;2.114;2022-07-23T03:54:59;100093.49;;;20.59;100.00
12536;BME280;6334;48.696;2.114;2022-07-23T03:57:29;100094.89;;;20.85;100.00
12536;BME280;6334;48.696;2.114;2022-07-23T04:00:00;100095.66;;;21.10;100.00
12536;BME280;6334;48.696;2.114;2022-07-23T04:02:30;100098.34;;;20.89;100.00
12536;BME280;6334;48.696;2.114;2022-07-23T04:05:01;100100.53;;;21.04;100.00
12536;BME280;6334;48.696;2.114;2022-07-23T04:07:31;100103.78;;;20.82;100.00
12536;BME280;6334;48.696;2.114;2022-07-23T04:10:02;100102.25;;;20.38;100.00
12536;BME280;6334;48.696;2.114;2022-07-23T04:12:32;100106.92;;;20.62;100.00
12536;BME280;6334;48.696;2.114;2022-07-23T04:15:02;100098.70;;;20.52;100.00
12536;BME280;6334;48.696;2.114;2022-07-23T04:17:33;100097.94;;;20.66;100.00
12536;BME280;6334;48.696;2.114;2022-07-23T04:20:03;100097.80;;;20.95;100.00
12536;BME280;6334;48.696;2.114;2022-07-23T04:22:34;100100.95;;;20.85;100.00
12536;BME280;6334;48.696;2.114;2022-07-23T04:25:05;100093.72;;;20.48;100.00
12536;BME280;6334;48.696;2.114;2022-07-23T04:27:35;100104.73;;;20.75;100.00
12536;BME280;6334;48.696;2.114;2022-07-23T04:30:06;100098.88;;;20.86;100.00
12536;BME280;6334;48.696;2.114;2022-07-23T04:32:36;100101.83;;;20.81;100.00
12536;BME280;6334;48.696;2.114;2022-07-23T04:35:07;100100.82;;;20.74;100.00
12536;BME280;6334;48.696;2.114;2022-07-23T04:37:37;100106.85;;;20.94;100.00
12536;BME280;6334;48.696;2.114;2022-07-23T04:40:08;100108.98;;;20.87;100.00
12536;BME280;6334;48.696;2.114;2022-07-23T04:42:38;100111.50;;;20.79;100.00
12536;BME280;6334;48.696;2.114;2022-07-23T04:45:09;100110.08;;;21.12;100.00
12536;BME280;6334;48.696;2.114;2022-07-23T04:47:39;100118.13;;;21.04;100.00
12536;BME280;6334;48.696;2.114;2022-07-23T04:50:10;100118.56;;;20.71;100.00
12536;BME280;6334;48.696;2.114;2022-07-23T04:52:40;100124.23;;;21.10;100.00
12536;BME280;6334;48.696;2.114;2022-07-23T04:55:11;100127.06;;;21.15;100.00
12536;BME280;6334;48.696;2.114;2022-07-23T04:57:41;100127.12;;;21.06;100.00
12536;BME280;6334;48.696;2.114;2022-07-23T05:00:12;100127.63;;;20.97;100.00
12536;BME280;6334;48.696;2.114;2022-07-23T05:02:42;100126.98;;;20.94;100.00
12536;BME280;6334;48.696;2.114;2022-07-23T05:05:13;100123.17;;;20.84;100.00
12536;BME280;6334;48.696;2.114;2022-07-23T05:07:43;100038.67;;;20.64;100.00
12536;BME280;6334;48.696;2.114;2022-07-23T05:10:13;100125.16;;;21.19;99.57
12536;BME280;6334;48.696;2.114;2022-07-23T05:12:44;100121.28;;;20.79;100.00
12536;BME280;6334;48.696;2.114;2022-07-23T05:15:14;100078.94;;;20.69;100.00
12536;BME280;6334;48.696;2.114;2022-07-23T05:17:45;100127.98;;;21.07;99.92
12536;BME280;6334;48.696;2.114;2022-07-23T05:20:15;100125.41;;;20.93;100.00
12536;BME280;6334;48.696;2.114;2022-07-23T05:22:46;100137.00;;;20.99;99.98
12536;BME280;6334;48.696;2.114;2022-07-23T05:25:17;100130.14;;;20.66;100.00
12536;BME280;6334;48.696;2.114;2022-07-23T05:27:48;100136.30;;;21.02;100.00
12536;BME280;6334;48.696;2.114;2022-07-23T05:30:18;100136.66;;;21.10;100.00
12536;BME280;6334;48.696;2.114;2022-07-23T05:32:49;100138.02;;;20.98;99.97
12536;BME280;6334;48.696;2.114;2022-07-23T05:35:19;100135.75;;;20.75;100.00
12536;BME280;6334;48.696;2.114;2022-07-23T05:37:49;100135.48;;;20.90;100.00
12536;BME280;6334;48.696;2.114;2022-07-23T05:40:20;100137.24;;;21.14;98.42
12536;BME280;6334;48.696;2.114;2022-07-23T05:42:50;100113.89;;;20.69;99.23
12536;BME280;6334;48.696;2.114;2022-07-23T05:45:21;100143.48;;;20.93;98.82
12536;BME280;6334;48.696;2.114;2022-07-23T05:47:51;100150.07;;;20.86;98.42
12536;BME280;6334;48.696;2.114;2022-07-23T05:50:22;100142.21;;;20.86;97.71
12536;BME280;6334;48.696;2.114;2022-07-23T05:52:52;100141.75;;;20.67;99.42
12536;BME280;6334;48.696;2.114;2022-07-23T05:55:23;100146.61;;;20.67;98.85
12536;BME280;6334;48.696;2.114;2022-07-23T05:57:53;100142.24;;;20.55;99.05
12536;BME280;6334;48.696;2.114;2022-07-23T06:00:24;100143.77;;;20.56;99.15
12536;BME280;6334;48.696;2.114;2022-07-23T06:02:54;100096.41;;;19.91;99.97
12536;BME280;6334;48.696;2.114;2022-07-23T06:05:25;100146.27;;;20.80;97.88
12536;BME280;6334;48.696;2.114;2022-07-23T06:07:55;100151.97;;;20.64;98.33
12536;BME280;6334;48.696;2.114;2022-07-23T06:10:26;100153.67;;;20.49;99.37
12536;BME280;6334;48.696;2.114;2022-07-23T06:12:56;100155.78;;;20.55;99.60
12536;BME280;6334;48.696;2.114;2022-07-23T06:15:26;100157.72;;;20.62;97.95
12536;BME280;6334;48.696;2.114;2022-07-23T06:17:57;100162.94;;;20.69;98.83
12536;BME280;6334;48.696;2.114;2022-07-23T06:20:27;100162.17;;;20.61;98.65
12536;BME280;6334;48.696;2.114;2022-07-23T06:22:58;100150.62;;;20.72;97.10
12536;BME280;6334;48.696;2.114;2022-07-23T06:25:28;100167.61;;;20.33;99.37
12536;BME280;6334;48.696;2.114;2022-07-23T06:27:59;100171.48;;;20.34;98.60
12536;BME280;6334;48.696;2.114;2022-07-23T06:30:29;100175.72;;;20.17;99.11
12536;BME280;6334;48.696;2.114;2022-07-23T06:33:00;100182.84;;;20.78;96.82
12536;BME280;6334;48.696;2.114;2022-07-23T06:35:30;100181.05;;;20.52;97.98
12536;BME280;6334;48.696;2.114;2022-07-23T06:38:01;100180.00;;;20.60;97.80
12536;BME280;6334;48.696;2.114;2022-07-23T06:40:31;100178.70;;;20.41;98.41
12536;BME280;6334;48.696;2.114;2022-07-23T06:43:02;100177.72;;;20.19;98.37
12536;BME280;6334;48.696;2.114;2022-07-23T06:45:32;100173.66;;;20.55;96.75
12536;BME280;6334;48.696;2.114;2022-07-23T06:48:03;100175.83;;;20.72;96.58
12536;BME280;6334;48.696;2.114;2022-07-23T06:50:33;100170.20;;;20.99;95.52
12536;BME280;6334;48.696;2.114;2022-07-23T06:53:03;100108.98;;;20.27;96.71
12536;BME280;6334;48.696;2.114;2022-07-23T06:55:34;100099.43;;;20.35;95.90
12536;BME280;6334;48.696;2.114;2022-07-23T06:58:04;100173.48;;;20.84;95.35
12536;BME280;6334;48.696;2.114;2022-07-23T07:00:35;100175.03;;;20.52;95.43
12536;BME280;6334;48.696;2.114;2022-07-23T07:03:05;100171.45;;;20.37;96.19
12536;BME280;6334;48.696;2.114;2022-07-23T07:05:36;100189.79;;;20.57;96.12
12536;BME280;6334;48.696;2.114;2022-07-23T07:08:09;100191.80;;;21.08;94.50
12536;BME280;6334;48.696;2.114;2022-07-23T07:10:39;100200.08;;;20.99;94.38
12536;BME280;6334;48.696;2.114;2022-07-23T07:13:10;100205.67;;;20.74;95.37
12536;BME280;6334;48.696;2.114;2022-07-23T07:15:41;100208.28;;;20.76;94.71
12536;BME280;6334;48.696;2.114;2022-07-23T07:18:11;100210.08;;;20.82;94.21
12536;BME280;6334;48.696;2.114;2022-07-23T07:20:41;100216.74;;;21.06;93.53
12536;BME280;6334;48.696;2.114;2022-07-23T07:23:12;100223.19;;;20.64;94.84
12536;BME280;6334;48.696;2.114;2022-07-23T07:25:42;100226.66;;;20.87;94.03
12536;BME280;6334;48.696;2.114;2022-07-23T07:28:13;100228.88;;;20.81;94.65
12536;BME280;6334;48.696;2.114;2022-07-23T07:30:43;100228.41;;;20.80;95.05
12536;BME280;6334;48.696;2.114;2022-07-23T07:33:14;100229.80;;;21.25;92.62
12536;BME280;6334;48.696;2.114;2022-07-23T07:35:44;100237.31;;;21.10;92.94
12536;BME280;6334;48.696;2.114;2022-07-23T07:38:14;100234.94;;;20.79;93.51
12536;BME280;6334;48.696;2.114;2022-07-23T07:40:45;100114.44;;;20.14;94.94
12536;BME280;6334;48.696;2.114;2022-07-23T07:43:15;100231.75;;;21.04;92.98
12536;BME280;6334;48.696;2.114;2022-07-23T07:45:46;100236.51;;;20.65;94.17
12536;BME280;6334;48.696;2.114;2022-07-23T07:48:16;100239.12;;;20.97;92.47
12536;BME280;6334;48.696;2.114;2022-07-23T07:50:47;100241.36;;;21.51;88.57
12536;BME280;6334;48.696;2.114;2022-07-23T07:53:17;100237.70;;;21.00;93.28
12536;BME280;6334;48.696;2.114;2022-07-23T07:55:48;100210.31;;;21.17;91.48
12536;BME280;6334;48.696;2.114;2022-07-23T07:58:18;100242.27;;;21.44;91.61
12536;BME280;6334;48.696;2.114;2022-07-23T08:00:49;100246.67;;;21.62;91.48
12536;BME280;6334;48.696;2.114;2022-07-23T08:03:19;100247.72;;;21.57;91.37
12536;BME280;6334;48.696;2.114;2022-07-23T08:05:50;100244.78;;;21.64;90.68
12536;BME280;6334;48.696;2.114;2022-07-23T08:08:20;100243.61;;;21.84;89.46
12536;BME280;6334;48.696;2.114;2022-07-23T08:10:51;100244.16;;;21.78;90.52
12536;BME280;6334;48.696;2.114;2022-07-23T08:13:21;100248.73;;;21.65;91.07
12536;BME280;6334;48.696;2.114;2022-07-23T08:15:51;100252.73;;;21.89;89.61
12536;BME280;6334;48.696;2.114;2022-07-23T08:18:22;100257.60;;;21.82;88.81
12536;BME280;6334;48.696;2.114;2022-07-23T08:20:52;100266.46;;;21.70;90.18
12536;BME280;6334;48.696;2.114;2022-07-23T08:23:23;100261.52;;;21.76;90.34
12536;BME280;6334;48.696;2.114;2022-07-23T08:25:53;100264.73;;;21.91;89.56
12536;BME280;6334;48.696;2.114;2022-07-23T08:28:24;100262.68;;;21.45;90.72
12536;BME280;6334;48.696;2.114;2022-07-23T08:30:54;100265.17;;;22.02;88.14
12536;BME280;6334;48.696;2.114;2022-07-23T08:33:25;100269.11;;;21.77;88.98
12536;BME280;6334;48.696;2.114;2022-07-23T08:35:55;100161.67;;;20.97;89.75
12536;BME280;6334;48.696;2.114;2022-07-23T08:38:26;100275.05;;;21.88;89.48
12536;BME280;6334;48.696;2.114;2022-07-23T08:40:56;100265.60;;;22.25;88.18
12536;BME280;6334;48.696;2.114;2022-07-23T08:43:28;100266.74;;;22.60;86.27
12536;BME280;6334;48.696;2.114;2022-07-23T08:45:58;100267.15;;;22.38;86.01
12536;BME280;6334;48.696;2.114;2022-07-23T08:48:28;100268.44;;;22.40;87.65
12536;BME280;6334;48.696;2.114;2022-07-23T08:50:59;100273.81;;;22.51;86.76
12536;BME280;6334;48.696;2.114;2022-07-23T08:53:29;100282.51;;;22.63;85.61
12536;BME280;6334;48.696;2.114;2022-07-23T08:56:00;100284.05;;;22.46;86.42
12536;BME280;6334;48.696;2.114;2022-07-23T08:58:30;100288.61;;;22.64;86.44
12536;BME280;6334;48.696;2.114;2022-07-23T09:01:00;100287.42;;;22.27;87.37
12536;BME280;6334;48.696;2.114;2022-07-23T09:03:34;100280.84;;;22.32;88.10
12536;BME280;6334;48.696;2.114;2022-07-23T09:06:03;100285.12;;;22.48;87.04
12536;BME280;6334;48.696;2.114;2022-07-23T09:08:37;100283.86;;;22.40;84.93
12536;BME280;6334;48.696;2.114;2022-07-23T09:11:08;100284.30;;;22.28;85.13
12536;BME280;6334;48.696;2.114;2022-07-23T09:13:50;100290.71;;;22.20;85.88
12536;BME280;6334;48.696;2.114;2022-07-23T09:16:26;100282.25;;;22.47;85.87
12536;BME280;6334;48.696;2.114;2022-07-23T09:18:59;100283.91;;;22.03;87.25
12536;BME280;6334;48.696;2.114;2022-07-23T09:21:29;100283.16;;;22.51;85.31
12536;BME280;6334;48.696;2.114;2022-07-23T09:24:02;100282.66;;;22.49;86.67
12536;BME280;6334;48.696;2.114;2022-07-23T09:26:44;100281.59;;;22.24;87.36
12536;BME280;6334;48.696;2.114;2022-07-23T09:29:23;100280.94;;;22.65;85.92
12536;BME280;6334;48.696;2.114;2022-07-23T09:31:57;100283.09;;;22.87;85.06
12536;BME280;6334;48.696;2.114;2022-07-23T09:34:29;100284.27;;;22.61;85.85
12536;BME280;6334;48.696;2.114;2022-07-23T09:37:12;100280.13;;;22.98;85.73
12536;BME280;6334;48.696;2.114;2022-07-23T09:39:41;100282.95;;;22.78;85.22
12536;BME280;6334;48.696;2.114;2022-07-23T09:42:17;100280.67;;;22.78;84.07
12536;BME280;6334;48.696;2.114;2022-07-23T09:44:50;100283.58;;;22.75;84.78
12536;BME280;6334;48.696;2.114;2022-07-23T09:47:20;100279.16;;;23.07;83.49
12536;BME280;6334;48.696;2.114;2022-07-23T09:50:09;100280.95;;;22.58;84.91
12536;BME280;6334;48.696;2.114;2022-07-23T09:52:45;100283.00;;;22.91;84.50
12536;BME280;6334;48.696;2.114;2022-07-23T09:55:18;100282.70;;;22.78;85.59
12536;BME280;6334;48.696;2.114;2022-07-23T09:57:48;100279.91;;;23.09;85.27
12536;BME280;6334;48.696;2.114;2022-07-23T10:00:18;100279.47;;;23.63;82.43
12536;BME280;6334;48.696;2.114;2022-07-23T10:02:49;100274.84;;;23.59;82.05
12536;BME280;6334;48.696;2.114;2022-07-23T10:05:19;100265.67;;;23.78;80.71
12536;BME280;6334;48.696;2.114;2022-07-23T10:07:50;100279.93;;;22.73;83.82
12536;BME280;6334;48.696;2.114;2022-07-23T10:10:21;100219.55;;;23.31;82.53
12536;BME280;6334;48.696;2.114;2022-07-23T10:12:51;100280.65;;;23.96;80.87
12536;BME280;6334;48.696;2.114;2022-07-23T10:15:25;100279.73;;;23.90;79.66
12536;BME280;6334;48.696;2.114;2022-07-23T10:17:56;100288.05;;;23.92;78.18
12536;BME280;6334;48.696;2.114;2022-07-23T10:20:26;100278.53;;;23.63;79.50
12536;BME280;6334;48.696;2.114;2022-07-23T10:22:59;100274.60;;;23.80;80.19
12536;BME280;6334;48.696;2.114;2022-07-23T10:25:34;100272.70;;;24.04;80.32
12536;BME280;6334;48.696;2.114;2022-07-23T10:28:32;100207.02;;;23.26;79.22
12536;BME280;6334;48.696;2.114;2022-07-23T10:33:42;100277.02;;;24.09;76.58
12536;BME280;6334;48.696;2.114;2022-07-23T10:36:25;100277.55;;;24.45;76.73
12536;BME280;6334;48.696;2.114;2022-07-23T10:41:46;100280.28;;;23.98;79.98
12536;BME280;6334;48.696;2.114;2022-07-23T10:44:16;100277.66;;;23.74;81.49
12536;BME280;6334;48.696;2.114;2022-07-23T10:47:00;100277.91;;;23.82;77.61
12536;BME280;6334;48.696;2.114;2022-07-23T10:49:47;100282.38;;;24.01;77.83
12536;BME280;6334;48.696;2.114;2022-07-23T10:52:22;100283.05;;;24.29;78.92
12536;BME280;6334;48.696;2.114;2022-07-23T10:54:52;100286.97;;;24.39;78.48
12536;BME280;6334;48.696;2.114;2022-07-23T10:57:25;100293.86;;;23.98;78.55
12536;BME280;6334;48.696;2.114;2022-07-23T11:02:37;100297.78;;;23.82;78.14
12536;BME280;6334;48.696;2.114;2022-07-23T11:05:08;100297.22;;;23.98;76.86
12536;BME280;6334;48.696;2.114;2022-07-23T11:10:38;100319.64;;;24.17;79.01
12536;BME280;6334;48.696;2.114;2022-07-23T11:16:04;100321.89;;;24.19;78.81
12536;BME280;6334;48.696;2.114;2022-07-23T11:26:52;100324.25;;;24.28;78.32
12536;BME280;6334;48.696;2.114;2022-07-23T11:32:04;100324.70;;;24.56;75.15
12536;BME280;6334;48.696;2.114;2022-07-23T11:34:43;100325.73;;;24.07;75.73
12536;BME280;6334;48.696;2.114;2022-07-23T11:37:32;100319.73;;;24.32;75.34
12536;BME280;6334;48.696;2.114;2022-07-23T11:40:02;100319.66;;;24.93;73.50
12536;BME280;6334;48.696;2.114;2022-07-23T11:42:31;100317.94;;;25.08;74.18
12536;BME280;6334;48.696;2.114;2022-07-23T11:45:01;100315.06;;;25.31;72.85
12536;BME280;6334;48.696;2.114;2022-07-23T11:47:32;100314.98;;;25.34;72.05
12536;BME280;6334;48.696;2.114;2022-07-23T11:50:03;100308.54;;;24.73;74.83
12536;BME280;6334;48.696;2.114;2022-07-23T11:52:33;100307.27;;;25.11;73.38
12536;BME280;6334;48.696;2.114;2022-07-23T11:55:04;100299.12;;;25.17;72.08
12536;BME280;6334;48.696;2.114;2022-07-23T11:57:34;100303.91;;;25.33;72.50
12536;BME280;6334;48.696;2.114;2022-07-23T12:00:14;100308.07;;;24.98;70.64
12536;BME280;6334;48.696;2.114;2022-07-23T12:02:45;100305.34;;;25.04;71.45
12536;BME280;6334;48.696;2.114;2022-07-23T12:05:18;100304.18;;;25.46;72.13
12536;BME280;6334;48.696;2.114;2022-07-23T12:07:51;100248.48;;;24.77;71.71
12536;BME280;6334;48.696;2.114;2022-07-23T12:10:26;100305.06;;;25.26;71.01
12536;BME280;6334;48.696;2.114;2022-07-23T12:12:58;100301.91;;;25.03;69.99
12536;BME280;6334;48.696;2.114;2022-07-23T12:18:08;100301.35;;;25.08;69.75
12536;BME280;6334;48.696;2.114;2022-07-23T12:20:39;100296.33;;;25.80;68.78
12536;BME280;6334;48.696;2.114;2022-07-23T12:23:10;100292.39;;;25.39;68.81
12536;BME280;6334;48.696;2.114;2022-07-23T12:25:41;100297.18;;;25.46;69.35
12536;BME280;6334;48.696;2.114;2022-07-23T12:28:13;100290.42;;;25.19;68.78
12536;BME280;6334;48.696;2.114;2022-07-23T12:35:58;100295.59;;;25.62;67.48
12536;BME280;6334;48.696;2.114;2022-07-23T12:38:35;100297.98;;;25.71;66.39
12536;BME280;6334;48.696;2.114;2022-07-23T12:40:59;100295.45;;;25.71;67.27
12536;BME280;6334;48.696;2.114;2022-07-23T12:43:30;100286.62;;;25.61;66.23
12536;BME280;6334;48.696;2.114;2022-07-23T12:46:13;100287.66;;;25.73;68.05
12536;BME280;6334;48.696;2.114;2022-07-23T12:53:54;100283.30;;;25.97;65.23
12536;BME280;6334;48.696;2.114;2022-07-23T12:56:30;100285.61;;;25.77;66.18
12536;BME280;6334;48.696;2.114;2022-07-23T12:59:09;100284.31;;;25.62;65.42
12536;BME280;6334;48.696;2.114;2022-07-23T13:01:39;100273.98;;;25.61;66.70
12536;BME280;6334;48.696;2.114;2022-07-23T13:06:43;100271.56;;;25.97;66.13
12536;BME280;6334;48.696;2.114;2022-07-23T13:09:14;100271.19;;;25.76;63.85
12536;BME280;6334;48.696;2.114;2022-07-23T13:11:44;100267.02;;;25.72;65.76
12536;BME280;6334;48.696;2.114;2022-07-23T13:16:52;100258.00;;;26.28;64.36
12536;BME280;6334;48.696;2.114;2022-07-23T13:19:21;100273.98;;;25.50;66.53
12536;BME280;6334;48.696;2.114;2022-07-23T13:21:52;100259.98;;;25.82;63.46
12536;BME280;6334;48.696;2.114;2022-07-23T13:24:22;100260.41;;;26.27;62.02
12536;BME280;6334;48.696;2.114;2022-07-23T13:26:53;100258.45;;;25.90;60.97
12536;BME280;6334;48.696;2.114;2022-07-23T13:29:23;100265.59;;;26.23;63.93
12536;BME280;6334;48.696;2.114;2022-07-23T13:31:54;100271.37;;;25.82;63.86
12536;BME280;6334;48.696;2.114;2022-07-23T13:34:24;100273.75;;;25.88;62.27
12536;BME280;6334;48.696;2.114;2022-07-23T13:36:55;100282.84;;;25.69;63.96
12536;BME280;6334;48.696;2.114;2022-07-23T13:39:25;100275.66;;;25.74;63.37
12536;BME280;6334;48.696;2.114;2022-07-23T13:41:56;100274.49;;;26.23;63.35
12536;BME280;6334;48.696;2.114;2022-07-23T13:44:26;100273.86;;;26.11;63.25
12536;BME280;6334;48.696;2.114;2022-07-23T13:46:57;100271.03;;;26.15;61.46
12536;BME280;6334;48.696;2.114;2022-07-23T13:49:27;100265.20;;;26.49;62.05
12536;BME280;6334;48.696;2.114;2022-07-23T13:51:57;100263.91;;;26.19;61.40
12536;BME280;6334;48.696;2.114;2022-07-23T13:54:28;100263.44;;;26.06;62.93
12536;BME280;6334;48.696;2.114;2022-07-23T13:56:58;100256.30;;;26.54;62.05
12536;BME280;6334;48.696;2.114;2022-07-23T13:59:29;100252.67;;;26.01;63.68
12536;BME280;6334;48.696;2.114;2022-07-23T14:01:59;100251.36;;;25.87;61.42